Arbor Hill, Iowa
Current Conditions -  °F | °C
As of 7:55 AM on Monday 22 Dec 2014 (Local Time) from KPRO Reporting Station
Haze Haze  
Wind Chill:   Ceiling: 900
Heat Index:   Visibility: 5mi
Dew Point:   Wind: 13mph
Humidity: 97%   Direction: 150°SSE
Pressure: 29.6"   Gusts: 18mph
Location:  41.5397°N, 94.299°W
Report Text: KPRO 221355Z AUTO 15011G16KT 5SM BR OVC009 04/04 A2960 RMK AO2 T00400036
Loading
Personal Weather Stations






























Interactive Weather Map New forecast layout! Learn more

10-Day Weather Forecast

Advertisements
Track Severe Weather on mobile